sensor_id;sensor_type;location;lat;lon;timestamp;P1;durP1;ratioP1;P2;durP2;ratioP2
11537;SDS011;50159;49.426;11.182;2022-09-09T00:00:48;1.43;;;1.40;;
11537;SDS011;50159;49.426;11.182;2022-09-09T00:03:27;1.47;;;1.47;;
11537;SDS011;50159;49.426;11.182;2022-09-09T00:06:30;1.40;;;1.40;;
11537;SDS011;50159;49.426;11.182;2022-09-09T00:09:12;1.73;;;1.63;;
11537;SDS011;50159;49.426;11.182;2022-09-09T00:11:49;1.37;;;1.37;;
11537;SDS011;50159;49.426;11.182;2022-09-09T00:17:02;1.37;;;1.37;;
11537;SDS011;50159;49.426;11.182;2022-09-09T00:19:41;2.00;;;1.40;;
11537;SDS011;50159;49.426;11.182;2022-09-09T00:22:25;5.50;;;1.50;;
11537;SDS011;50159;49.426;11.182;2022-09-09T00:25:01;1.50;;;1.40;;
11537;SDS011;50159;49.426;11.182;2022-09-09T00:27:55;1.60;;;1.60;;
11537;SDS011;50159;49.426;11.182;2022-09-09T00:30:27;1.30;;;1.30;;
11537;SDS011;50159;49.426;11.182;2022-09-09T00:33:01;1.33;;;1.33;;
11537;SDS011;50159;49.426;11.182;2022-09-09T00:35:42;1.50;;;1.50;;
11537;SDS011;50159;49.426;11.182;2022-09-09T00:38:15;2.13;;;1.83;;
11537;SDS011;50159;49.426;11.182;2022-09-09T00:40:55;1.60;;;1.60;;
11537;SDS011;50159;49.426;11.182;2022-09-09T00:43:37;1.50;;;1.50;;
11537;SDS011;50159;49.426;11.182;2022-09-09T00:58:25;1.73;;;1.63;;
11537;SDS011;50159;49.426;11.182;2022-09-09T01:01:02;2.67;;;1.60;;
11537;SDS011;50159;49.426;11.182;2022-09-09T01:03:37;1.30;;;1.30;;
11537;SDS011;50159;49.426;11.182;2022-09-09T01:18:04;1.33;;;1.33;;
11537;SDS011;50159;49.426;11.182;2022-09-09T01:20:55;1.47;;;1.47;;
11537;SDS011;50159;49.426;11.182;2022-09-09T01:26:59;1.40;;;1.40;;
11537;SDS011;50159;49.426;11.182;2022-09-09T01:29:31;1.50;;;1.50;;
11537;SDS011;50159;49.426;11.182;2022-09-09T01:32:02;1.30;;;1.30;;
11537;SDS011;50159;49.426;11.182;2022-09-09T01:35:04;1.50;;;1.50;;
11537;SDS011;50159;49.426;11.182;2022-09-09T01:37:38;1.70;;;1.70;;
11537;SDS011;50159;49.426;11.182;2022-09-09T01:40:05;1.23;;;1.23;;
11537;SDS011;50159;49.426;11.182;2022-09-09T01:42:32;1.43;;;1.30;;
11537;SDS011;50159;49.426;11.182;2022-09-09T01:44:59;1.50;;;1.50;;
11537;SDS011;50159;49.426;11.182;2022-09-09T01:47:26;1.47;;;1.43;;
11537;SDS011;50159;49.426;11.182;2022-09-09T01:49:53;1.60;;;1.50;;
11537;SDS011;50159;49.426;11.182;2022-09-09T01:52:20;1.33;;;1.33;;
11537;SDS011;50159;49.426;11.182;2022-09-09T01:54:47;1.47;;;1.47;;
11537;SDS011;50159;49.426;11.182;2022-09-09T01:57:15;1.30;;;1.30;;
11537;SDS011;50159;49.426;11.182;2022-09-09T02:02:46;4.83;;;2.00;;
11537;SDS011;50159;49.426;11.182;2022-09-09T02:05:37;1.20;;;1.20;;
11537;SDS011;50159;49.426;11.182;2022-09-09T02:11:23;2.53;;;1.47;;
11537;SDS011;50159;49.426;11.182;2022-09-09T02:13:54;1.80;;;1.40;;
11537;SDS011;50159;49.426;11.182;2022-09-09T02:16:44;4.00;;;1.67;;
11537;SDS011;50159;49.426;11.182;2022-09-09T02:19:22;1.40;;;1.40;;
11537;SDS011;50159;49.426;11.182;2022-09-09T02:21:56;1.30;;;1.30;;
11537;SDS011;50159;49.426;11.182;2022-09-09T02:24:27;2.17;;;1.47;;
11537;SDS011;50159;49.426;11.182;2022-09-09T02:26:59;1.57;;;1.50;;
11537;SDS011;50159;49.426;11.182;2022-09-09T02:29:34;1.40;;;1.40;;
11537;SDS011;50159;49.426;11.182;2022-09-09T02:32:08;1.50;;;1.50;;
11537;SDS011;50159;49.426;11.182;2022-09-09T02:34:42;1.53;;;1.53;;
11537;SDS011;50159;49.426;11.182;2022-09-09T02:37:15;1.40;;;1.40;;
11537;SDS011;50159;49.426;11.182;2022-09-09T02:39:48;1.40;;;1.40;;
11537;SDS011;50159;49.426;11.182;2022-09-09T02:42:15;1.60;;;1.50;;
11537;SDS011;50159;49.426;11.182;2022-09-09T02:44:42;1.70;;;1.60;;
11537;SDS011;50159;49.426;11.182;2022-09-09T02:49:57;1.60;;;1.60;;
11537;SDS011;50159;49.426;11.182;2022-09-09T02:55:46;1.60;;;1.50;;
11537;SDS011;50159;49.426;11.182;2022-09-09T02:58:30;1.23;;;1.23;;
11537;SDS011;50159;49.426;11.182;2022-09-09T03:00:57;1.40;;;1.40;;
11537;SDS011;50159;49.426;11.182;2022-09-09T03:03:27;4.30;;;1.50;;
11537;SDS011;50159;49.426;11.182;2022-09-09T03:05:54;1.47;;;1.47;;
11537;SDS011;50159;49.426;11.182;2022-09-09T03:08:21;1.53;;;1.53;;
11537;SDS011;50159;49.426;11.182;2022-09-09T03:10:47;1.40;;;1.40;;
11537;SDS011;50159;49.426;11.182;2022-09-09T03:13:15;1.70;;;1.60;;
11537;SDS011;50159;49.426;11.182;2022-09-09T03:15:42;1.40;;;1.40;;
11537;SDS011;50159;49.426;11.182;2022-09-09T03:18:08;1.73;;;1.73;;
11537;SDS011;50159;49.426;11.182;2022-09-09T03:20:35;1.60;;;1.60;;
11537;SDS011;50159;49.426;11.182;2022-09-09T03:23:02;1.47;;;1.47;;
11537;SDS011;50159;49.426;11.182;2022-09-09T03:25:29;1.50;;;1.50;;
11537;SDS011;50159;49.426;11.182;2022-09-09T03:27:56;3.57;;;1.60;;
11537;SDS011;50159;49.426;11.182;2022-09-09T03:30:24;2.37;;;1.70;;
11537;SDS011;50159;49.426;11.182;2022-09-09T03:32:53;2.03;;;1.93;;
11537;SDS011;50159;49.426;11.182;2022-09-09T03:35:21;1.83;;;1.50;;
11537;SDS011;50159;49.426;11.182;2022-09-09T03:37:48;1.87;;;1.67;;
11537;SDS011;50159;49.426;11.182;2022-09-09T03:40:15;1.70;;;1.70;;
11537;SDS011;50159;49.426;11.182;2022-09-09T03:42:42;1.77;;;1.67;;
11537;SDS011;50159;49.426;11.182;2022-09-09T03:45:09;1.50;;;1.50;;
11537;SDS011;50159;49.426;11.182;2022-09-09T03:47:36;2.30;;;1.57;;
11537;SDS011;50159;49.426;11.182;2022-09-09T03:50:04;1.60;;;1.50;;
11537;SDS011;50159;49.426;11.182;2022-09-09T03:52:38;1.93;;;1.60;;
11537;SDS011;50159;49.426;11.182;2022-09-09T03:55:07;1.53;;;1.53;;
11537;SDS011;50159;49.426;11.182;2022-09-09T03:57:35;1.80;;;1.70;;
11537;SDS011;50159;49.426;11.182;2022-09-09T04:00:03;1.50;;;1.50;;
11537;SDS011;50159;49.426;11.182;2022-09-09T04:02:33;1.83;;;1.73;;
11537;SDS011;50159;49.426;11.182;2022-09-09T04:05:00;1.70;;;1.70;;
11537;SDS011;50159;49.426;11.182;2022-09-09T04:07:27;1.60;;;1.60;;
11537;SDS011;50159;49.426;11.182;2022-09-09T04:09:54;1.47;;;1.47;;
11537;SDS011;50159;49.426;11.182;2022-09-09T04:12:21;1.73;;;1.70;;
11537;SDS011;50159;49.426;11.182;2022-09-09T04:14:48;1.57;;;1.53;;
11537;SDS011;50159;49.426;11.182;2022-09-09T04:17:15;1.40;;;1.40;;
11537;SDS011;50159;49.426;11.182;2022-09-09T04:19:43;1.67;;;1.67;;
11537;SDS011;50159;49.426;11.182;2022-09-09T04:22:10;1.70;;;1.60;;
11537;SDS011;50159;49.426;11.182;2022-09-09T04:24:37;1.90;;;1.80;;
11537;SDS011;50159;49.426;11.182;2022-09-09T04:27:04;1.53;;;1.53;;
11537;SDS011;50159;49.426;11.182;2022-09-09T04:29:31;1.73;;;1.63;;
11537;SDS011;50159;49.426;11.182;2022-09-09T04:31:57;1.90;;;1.80;;
11537;SDS011;50159;49.426;11.182;2022-09-09T04:34:24;2.17;;;2.00;;
11537;SDS011;50159;49.426;11.182;2022-09-09T04:36:51;1.63;;;1.53;;
11537;SDS011;50159;49.426;11.182;2022-09-09T04:39:18;1.97;;;1.87;;
11537;SDS011;50159;49.426;11.182;2022-09-09T04:41:45;1.80;;;1.70;;
11537;SDS011;50159;49.426;11.182;2022-09-09T04:44:13;1.93;;;1.70;;
11537;SDS011;50159;49.426;11.182;2022-09-09T04:46:40;1.73;;;1.63;;
11537;SDS011;50159;49.426;11.182;2022-09-09T04:49:07;1.70;;;1.70;;
11537;SDS011;50159;49.426;11.182;2022-09-09T04:51:40;1.67;;;1.63;;
11537;SDS011;50159;49.426;11.182;2022-09-09T04:54:06;1.90;;;1.80;;
11537;SDS011;50159;49.426;11.182;2022-09-09T04:56:33;1.73;;;1.73;;
11537;SDS011;50159;49.426;11.182;2022-09-09T04:59:00;2.00;;;2.00;;
11537;SDS011;50159;49.426;11.182;2022-09-09T05:01:28;1.90;;;1.90;;
11537;SDS011;50159;49.426;11.182;2022-09-09T05:03:55;2.10;;;2.00;;
11537;SDS011;50159;49.426;11.182;2022-09-09T05:06:22;2.20;;;2.00;;
11537;SDS011;50159;49.426;11.182;2022-09-09T05:08:50;1.83;;;1.83;;
11537;SDS011;50159;49.426;11.182;2022-09-09T05:11:18;2.17;;;1.97;;
11537;SDS011;50159;49.426;11.182;2022-09-09T05:13:49;2.10;;;2.00;;
11537;SDS011;50159;49.426;11.182;2022-09-09T05:16:17;3.13;;;1.80;;
11537;SDS011;50159;49.426;11.182;2022-09-09T05:18:45;1.90;;;1.80;;
11537;SDS011;50159;49.426;11.182;2022-09-09T05:21:13;2.73;;;1.90;;
11537;SDS011;50159;49.426;11.182;2022-09-09T05:23:41;1.80;;;1.80;;
11537;SDS011;50159;49.426;11.182;2022-09-09T05:26:11;1.70;;;1.70;;
11537;SDS011;50159;49.426;11.182;2022-09-09T05:28:43;1.70;;;1.70;;
11537;SDS011;50159;49.426;11.182;2022-09-09T05:31:11;1.90;;;1.80;;
11537;SDS011;50159;49.426;11.182;2022-09-09T05:33:40;2.00;;;1.80;;
11537;SDS011;50159;49.426;11.182;2022-09-09T05:36:10;1.60;;;1.60;;
11537;SDS011;50159;49.426;11.182;2022-09-09T05:38:40;2.07;;;1.73;;
11537;SDS011;50159;49.426;11.182;2022-09-09T05:41:08;1.83;;;1.73;;
11537;SDS011;50159;49.426;11.182;2022-09-09T05:43:37;2.90;;;2.00;;
11537;SDS011;50159;49.426;11.182;2022-09-09T05:46:05;2.30;;;1.97;;
11537;SDS011;50159;49.426;11.182;2022-09-09T05:48:36;2.00;;;1.90;;
11537;SDS011;50159;49.426;11.182;2022-09-09T05:51:07;1.50;;;1.50;;
11537;SDS011;50159;49.426;11.182;2022-09-09T05:53:38;2.20;;;1.73;;
11537;SDS011;50159;49.426;11.182;2022-09-09T05:56:06;2.70;;;2.10;;
11537;SDS011;50159;49.426;11.182;2022-09-09T05:58:37;2.27;;;1.60;;
11537;SDS011;50159;49.426;11.182;2022-09-09T06:01:05;1.83;;;1.73;;
11537;SDS011;50159;49.426;11.182;2022-09-09T06:03:41;2.53;;;2.07;;
11537;SDS011;50159;49.426;11.182;2022-09-09T06:06:11;2.03;;;1.90;;
11537;SDS011;50159;49.426;11.182;2022-09-09T06:08:44;2.03;;;2.00;;
11537;SDS011;50159;49.426;11.182;2022-09-09T06:11:13;1.80;;;1.70;;
11537;SDS011;50159;49.426;11.182;2022-09-09T06:13:43;1.80;;;1.70;;
11537;SDS011;50159;49.426;11.182;2022-09-09T06:16:11;2.03;;;1.80;;
11537;SDS011;50159;49.426;11.182;2022-09-09T06:18:41;1.40;;;1.40;;
11537;SDS011;50159;49.426;11.182;2022-09-09T06:21:15;1.77;;;1.67;;
11537;SDS011;50159;49.426;11.182;2022-09-09T06:23:44;1.60;;;1.60;;
11537;SDS011;50159;49.426;11.182;2022-09-09T06:26:14;1.70;;;1.60;;
11537;SDS011;50159;49.426;11.182;2022-09-09T06:29:08;1.70;;;1.60;;
11537;SDS011;50159;49.426;11.182;2022-09-09T06:31:36;1.63;;;1.63;;
11537;SDS011;50159;49.426;11.182;2022-09-09T06:34:04;1.90;;;1.70;;
11537;SDS011;50159;49.426;11.182;2022-09-09T06:36:34;1.60;;;1.60;;
11537;SDS011;50159;49.426;11.182;2022-09-09T06:39:03;1.83;;;1.47;;
11537;SDS011;50159;49.426;11.182;2022-09-09T06:41:38;1.97;;;1.87;;
11537;SDS011;50159;49.426;11.182;2022-09-09T06:44:05;1.47;;;1.47;;
11537;SDS011;50159;49.426;11.182;2022-09-09T06:46:32;1.67;;;1.40;;
11537;SDS011;50159;49.426;11.182;2022-09-09T06:49:00;1.83;;;1.73;;
11537;SDS011;50159;49.426;11.182;2022-09-09T06:51:30;1.93;;;1.73;;
11537;SDS011;50159;49.426;11.182;2022-09-09T06:54:00;1.40;;;1.40;;
11537;SDS011;50159;49.426;11.182;2022-09-09T06:56:29;1.90;;;1.70;;
11537;SDS011;50159;49.426;11.182;2022-09-09T06:59:06;1.80;;;1.67;;
11537;SDS011;50159;49.426;11.182;2022-09-09T07:01:36;3.50;;;1.50;;
11537;SDS011;50159;49.426;11.182;2022-09-09T07:04:07;1.47;;;1.40;;
11537;SDS011;50159;49.426;11.182;2022-09-09T07:06:35;1.30;;;1.30;;
11537;SDS011;50159;49.426;11.182;2022-09-09T07:09:06;1.43;;;1.40;;
11537;SDS011;50159;49.426;11.182;2022-09-09T07:11:38;1.60;;;1.60;;
11537;SDS011;50159;49.426;11.182;2022-09-09T07:14:12;1.70;;;1.60;;
11537;SDS011;50159;49.426;11.182;2022-09-09T07:16:41;1.40;;;1.30;;
11537;SDS011;50159;49.426;11.182;2022-09-09T07:19:09;1.50;;;1.40;;
11537;SDS011;50159;49.426;11.182;2022-09-09T07:21:37;1.87;;;1.77;;
11537;SDS011;50159;49.426;11.182;2022-09-09T07:24:06;1.70;;;1.60;;
11537;SDS011;50159;49.426;11.182;2022-09-09T07:26:33;1.60;;;1.50;;
11537;SDS011;50159;49.426;11.182;2022-09-09T07:29:00;1.43;;;1.43;;
11537;SDS011;50159;49.426;11.182;2022-09-09T07:31:28;1.40;;;1.40;;
11537;SDS011;50159;49.426;11.182;2022-09-09T07:33:58;1.60;;;1.50;;
11537;SDS011;50159;49.426;11.182;2022-09-09T07:36:33;1.23;;;1.23;;
11537;SDS011;50159;49.426;11.182;2022-09-09T07:39:06;1.20;;;1.20;;
11537;SDS011;50159;49.426;11.182;2022-09-09T07:41:37;1.30;;;1.30;;
11537;SDS011;50159;49.426;11.182;2022-09-09T07:44:09;1.80;;;1.50;;
11537;SDS011;50159;49.426;11.182;2022-09-09T07:46:39;1.50;;;1.40;;
11537;SDS011;50159;49.426;11.182;2022-09-09T07:49:08;1.60;;;1.50;;
11537;SDS011;50159;49.426;11.182;2022-09-09T07:51:37;1.50;;;1.50;;
11537;SDS011;50159;49.426;11.182;2022-09-09T07:54:12;1.77;;;1.70;;
11537;SDS011;50159;49.426;11.182;2022-09-09T07:56:41;1.40;;;1.37;;
11537;SDS011;50159;49.426;11.182;2022-09-09T07:59:08;1.43;;;1.23;;
11537;SDS011;50159;49.426;11.182;2022-09-09T08:01:37;1.37;;;1.27;;
11537;SDS011;50159;49.426;11.182;2022-09-09T08:04:08;3.30;;;1.50;;
11537;SDS011;50159;49.426;11.182;2022-09-09T08:06:48;1.70;;;1.30;;
11537;SDS011;50159;49.426;11.182;2022-09-09T08:09:21;1.23;;;1.23;;
11537;SDS011;50159;49.426;11.182;2022-09-09T08:11:53;1.30;;;1.20;;
11537;SDS011;50159;49.426;11.182;2022-09-09T08:14:19;1.30;;;1.30;;
11537;SDS011;50159;49.426;11.182;2022-09-09T08:16:47;1.40;;;1.30;;
11537;SDS011;50159;49.426;11.182;2022-09-09T08:19:15;2.10;;;1.53;;
11537;SDS011;50159;49.426;11.182;2022-09-09T08:21:43;1.43;;;1.37;;
11537;SDS011;50159;49.426;11.182;2022-09-09T08:24:11;2.50;;;1.60;;
11537;SDS011;50159;49.426;11.182;2022-09-09T08:26:42;2.20;;;1.33;;
11537;SDS011;50159;49.426;11.182;2022-09-09T08:29:12;1.17;;;1.17;;
11537;SDS011;50159;49.426;11.182;2022-09-09T08:31:43;1.20;;;1.20;;
11537;SDS011;50159;49.426;11.182;2022-09-09T08:34:23;1.13;;;1.13;;
11537;SDS011;50159;49.426;11.182;2022-09-09T08:36:53;1.10;;;1.07;;
11537;SDS011;50159;49.426;11.182;2022-09-09T08:39:20;1.77;;;1.27;;
11537;SDS011;50159;49.426;11.182;2022-09-09T08:41:52;1.03;;;1.03;;
11537;SDS011;50159;49.426;11.182;2022-09-09T08:58:28;3.17;;;1.00;;
11537;SDS011;50159;49.426;11.182;2022-09-09T09:01:19;1.30;;;1.20;;
11537;SDS011;50159;49.426;11.182;2022-09-09T09:10:50;1.33;;;1.10;;
11537;SDS011;50159;49.426;11.182;2022-09-09T09:13:29;1.50;;;1.33;;
11537;SDS011;50159;49.426;11.182;2022-09-09T09:19:04;2.40;;;1.10;;
11537;SDS011;50159;49.426;11.182;2022-09-09T09:24:13;1.00;;;1.00;;
11537;SDS011;50159;49.426;11.182;2022-09-09T09:26:51;1.63;;;0.97;;
11537;SDS011;50159;49.426;11.182;2022-09-09T09:29:19;2.03;;;1.20;;
11537;SDS011;50159;49.426;11.182;2022-09-09T09:31:52;1.73;;;1.10;;
11537;SDS011;50159;49.426;11.182;2022-09-09T09:34:23;1.00;;;1.00;;
11537;SDS011;50159;49.426;11.182;2022-09-09T09:36:56;2.47;;;1.20;;
11537;SDS011;50159;49.426;11.182;2022-09-09T09:39:29;1.47;;;1.30;;
11537;SDS011;50159;49.426;11.182;2022-09-09T09:42:24;1.90;;;1.10;;
11537;SDS011;50159;49.426;11.182;2022-09-09T09:44:51;2.17;;;1.20;;
11537;SDS011;50159;49.426;11.182;2022-09-09T09:47:20;1.00;;;1.00;;
11537;SDS011;50159;49.426;11.182;2022-09-09T09:49:59;1.90;;;1.20;;
11537;SDS011;50159;49.426;11.182;2022-09-09T09:52:30;0.90;;;0.90;;
11537;SDS011;50159;49.426;11.182;2022-09-09T09:55:02;1.40;;;0.90;;
11537;SDS011;50159;49.426;11.182;2022-09-09T09:57:39;1.10;;;1.10;;
11537;SDS011;50159;49.426;11.182;2022-09-09T10:00:19;0.90;;;0.90;;
11537;SDS011;50159;49.426;11.182;2022-09-09T10:02:49;2.20;;;1.10;;
11537;SDS011;50159;49.426;11.182;2022-09-09T10:05:23;1.10;;;1.00;;
11537;SDS011;50159;49.426;11.182;2022-09-09T10:08:00;1.03;;;0.93;;
11537;SDS011;50159;49.426;11.182;2022-09-09T10:10:42;7.10;;;1.23;;
11537;SDS011;50159;49.426;11.182;2022-09-09T10:19:31;0.80;;;0.80;;
11537;SDS011;50159;49.426;11.182;2022-09-09T10:27:56;0.80;;;0.80;;
11537;SDS011;50159;49.426;11.182;2022-09-09T10:33:37;1.20;;;1.10;;
11537;SDS011;50159;49.426;11.182;2022-09-09T10:36:20;2.87;;;0.80;;
11537;SDS011;50159;49.426;11.182;2022-09-09T10:38:52;1.17;;;1.03;;
11537;SDS011;50159;49.426;11.182;2022-09-09T10:41:52;0.97;;;0.90;;
11537;SDS011;50159;49.426;11.182;2022-09-09T10:47:59;1.10;;;0.97;;
11537;SDS011;50159;49.426;11.182;2022-09-09T10:53:50;1.83;;;0.90;;
11537;SDS011;50159;49.426;11.182;2022-09-09T10:56:43;0.90;;;0.90;;
11537;SDS011;50159;49.426;11.182;2022-09-09T10:59:20;0.87;;;0.87;;
11537;SDS011;50159;49.426;11.182;2022-09-09T11:01:59;1.07;;;1.03;;
11537;SDS011;50159;49.426;11.182;2022-09-09T11:07:11;0.73;;;0.73;;
11537;SDS011;50159;49.426;11.182;2022-09-09T11:09:58;1.43;;;0.90;;
11537;SDS011;50159;49.426;11.182;2022-09-09T11:12:33;1.00;;;1.00;;
11537;SDS011;50159;49.426;11.182;2022-09-09T11:15:15;1.90;;;0.90;;
11537;SDS011;50159;49.426;11.182;2022-09-09T11:18:01;1.57;;;1.13;;
11537;SDS011;50159;49.426;11.182;2022-09-09T11:20:34;1.80;;;0.90;;
11537;SDS011;50159;49.426;11.182;2022-09-09T11:23:09;1.10;;;0.93;;
11537;SDS011;50159;49.426;11.182;2022-09-09T11:25:51;1.57;;;0.90;;
11537;SDS011;50159;49.426;11.182;2022-09-09T11:31:11;0.73;;;0.73;;
11537;SDS011;50159;49.426;11.182;2022-09-09T11:37:00;1.00;;;0.90;;
11537;SDS011;50159;49.426;11.182;2022-09-09T11:40:00;3.35;;;1.20;;
11537;SDS011;50159;49.426;11.182;2022-09-09T11:42:45;1.07;;;0.90;;
11537;SDS011;50159;49.426;11.182;2022-09-09T11:45:25;0.80;;;0.80;;
11537;SDS011;50159;49.426;11.182;2022-09-09T11:47:59;0.87;;;0.80;;
11537;SDS011;50159;49.426;11.182;2022-09-09T11:50:29;3.70;;;0.87;;
11537;SDS011;50159;49.426;11.182;2022-09-09T11:53:18;0.90;;;0.90;;
11537;SDS011;50159;49.426;11.182;2022-09-09T11:58:53;0.85;;;0.82;;
11537;SDS011;50159;49.426;11.182;2022-09-09T12:01:44;1.10;;;1.00;;
11537;SDS011;50159;49.426;11.182;2022-09-09T12:06:52;4.73;;;0.97;;
11537;SDS011;50159;49.426;11.182;2022-09-09T12:09:26;2.47;;;0.70;;
11537;SDS011;50159;49.426;11.182;2022-09-09T12:14:55;1.03;;;0.90;;
11537;SDS011;50159;49.426;11.182;2022-09-09T12:17:26;1.53;;;1.00;;
11537;SDS011;50159;49.426;11.182;2022-09-09T12:20:39;1.90;;;0.90;;
11537;SDS011;50159;49.426;11.182;2022-09-09T12:28:56;3.03;;;1.17;;
11537;SDS011;50159;49.426;11.182;2022-09-09T12:40:05;1.13;;;0.87;;
11537;SDS011;50159;49.426;11.182;2022-09-09T12:42:54;1.87;;;0.90;;
11537;SDS011;50159;49.426;11.182;2022-09-09T12:45:23;2.37;;;1.20;;
11537;SDS011;50159;49.426;11.182;2022-09-09T12:47:57;0.97;;;0.90;;
11537;SDS011;50159;49.426;11.182;2022-09-09T12:50:35;1.50;;;1.10;;
11537;SDS011;50159;49.426;11.182;2022-09-09T12:53:23;1.07;;;0.93;;
11537;SDS011;50159;49.426;11.182;2022-09-09T12:56:03;1.10;;;1.00;;
11537;SDS011;50159;49.426;11.182;2022-09-09T12:58:36;1.20;;;1.10;;
11537;SDS011;50159;49.426;11.182;2022-09-09T13:01:06;1.70;;;1.03;;
11537;SDS011;50159;49.426;11.182;2022-09-09T13:03:47;1.67;;;1.00;;
11537;SDS011;50159;49.426;11.182;2022-09-09T13:06:20;1.20;;;0.90;;
11537;SDS011;50159;49.426;11.182;2022-09-09T13:08:54;1.00;;;1.00;;
11537;SDS011;50159;49.426;11.182;2022-09-09T13:11:31;1.03;;;0.97;;
11537;SDS011;50159;49.426;11.182;2022-09-09T13:14:16;1.87;;;1.00;;
11537;SDS011;50159;49.426;11.182;2022-09-09T13:16:56;3.70;;;0.90;;
11537;SDS011;50159;49.426;11.182;2022-09-09T13:19:25;2.97;;;1.20;;
11537;SDS011;50159;49.426;11.182;2022-09-09T13:21:57;0.90;;;0.90;;
11537;SDS011;50159;49.426;11.182;2022-09-09T13:24:31;0.90;;;0.90;;
11537;SDS011;50159;49.426;11.182;2022-09-09T13:27:00;4.03;;;1.20;;
11537;SDS011;50159;49.426;11.182;2022-09-09T13:29:51;0.77;;;0.77;;
11537;SDS011;50159;49.426;11.182;2022-09-09T13:32:23;1.07;;;1.07;;
11537;SDS011;50159;49.426;11.182;2022-09-09T13:34:57;2.97;;;0.90;;
11537;SDS011;50159;49.426;11.182;2022-09-09T13:37:35;0.90;;;0.90;;
11537;SDS011;50159;49.426;11.182;2022-09-09T13:40:06;1.27;;;1.00;;
11537;SDS011;50159;49.426;11.182;2022-09-09T13:42:44;1.10;;;1.00;;
11537;SDS011;50159;49.426;11.182;2022-09-09T13:45:15;0.90;;;0.87;;
11537;SDS011;50159;49.426;11.182;2022-09-09T13:47:48;2.20;;;0.80;;
11537;SDS011;50159;49.426;11.182;2022-09-09T13:50:25;1.57;;;1.10;;
11537;SDS011;50159;49.426;11.182;2022-09-09T13:52:56;1.13;;;0.90;;
11537;SDS011;50159;49.426;11.182;2022-09-09T13:55:26;0.80;;;0.80;;
11537;SDS011;50159;49.426;11.182;2022-09-09T13:57:58;0.90;;;0.70;;
11537;SDS011;50159;49.426;11.182;2022-09-09T14:00:32;1.43;;;1.20;;
11537;SDS011;50159;49.426;11.182;2022-09-09T14:03:00;0.70;;;0.70;;
11537;SDS011;50159;49.426;11.182;2022-09-09T14:05:29;0.90;;;0.90;;
11537;SDS011;50159;49.426;11.182;2022-09-09T14:07:58;0.80;;;0.80;;
11537;SDS011;50159;49.426;11.182;2022-09-09T14:10:26;0.70;;;0.70;;
11537;SDS011;50159;49.426;11.182;2022-09-09T14:12:53;2.23;;;1.03;;
11537;SDS011;50159;49.426;11.182;2022-09-09T14:15:20;1.43;;;1.10;;
11537;SDS011;50159;49.426;11.182;2022-09-09T14:17:47;0.70;;;0.70;;
11537;SDS011;50159;49.426;11.182;2022-09-09T14:20:14;2.63;;;1.27;;
11537;SDS011;50159;49.426;11.182;2022-09-09T14:22:43;2.23;;;1.17;;
11537;SDS011;50159;49.426;11.182;2022-09-09T14:25:10;3.43;;;1.47;;
11537;SDS011;50159;49.426;11.182;2022-09-09T14:27:39;1.80;;;1.40;;
11537;SDS011;50159;49.426;11.182;2022-09-09T14:30:06;1.63;;;1.30;;
11537;SDS011;50159;49.426;11.182;2022-09-09T14:32:34;1.40;;;0.80;;
11537;SDS011;50159;49.426;11.182;2022-09-09T14:35:01;2.57;;;1.40;;
11537;SDS011;50159;49.426;11.182;2022-09-09T14:37:28;1.20;;;1.20;;
11537;SDS011;50159;49.426;11.182;2022-09-09T14:39:57;1.27;;;1.00;;
11537;SDS011;50159;49.426;11.182;2022-09-09T14:42:24;2.70;;;1.20;;
11537;SDS011;50159;49.426;11.182;2022-09-09T14:44:52;1.27;;;1.10;;
11537;SDS011;50159;49.426;11.182;2022-09-09T14:47:19;1.47;;;1.30;;
11537;SDS011;50159;49.426;11.182;2022-09-09T14:49:46;1.20;;;1.20;;
11537;SDS011;50159;49.426;11.182;2022-09-09T14:52:15;3.17;;;1.40;;
11537;SDS011;50159;49.426;11.182;2022-09-09T14:54:42;2.20;;;1.40;;
11537;SDS011;50159;49.426;11.182;2022-09-09T14:57:09;1.00;;;1.00;;
11537;SDS011;50159;49.426;11.182;2022-09-09T14:59:36;1.20;;;1.20;;
11537;SDS011;50159;49.426;11.182;2022-09-09T15:02:02;1.33;;;1.23;;
11537;SDS011;50159;49.426;11.182;2022-09-09T15:04:30;1.50;;;1.30;;
11537;SDS011;50159;49.426;11.182;2022-09-09T15:06:57;1.00;;;1.00;;
11537;SDS011;50159;49.426;11.182;2022-09-09T15:09:25;1.30;;;1.20;;
11537;SDS011;50159;49.426;11.182;2022-09-09T15:11:52;3.13;;;1.10;;
11537;SDS011;50159;49.426;11.182;2022-09-09T15:14:18;1.10;;;1.10;;
11537;SDS011;50159;49.426;11.182;2022-09-09T15:16:50;1.07;;;0.80;;
11537;SDS011;50159;49.426;11.182;2022-09-09T15:19:17;2.57;;;1.10;;
11537;SDS011;50159;49.426;11.182;2022-09-09T15:21:44;2.40;;;1.10;;
11537;SDS011;50159;49.426;11.182;2022-09-09T15:24:10;1.43;;;0.90;;
11537;SDS011;50159;49.426;11.182;2022-09-09T15:26:39;2.83;;;0.73;;
11537;SDS011;50159;49.426;11.182;2022-09-09T15:29:06;2.67;;;1.03;;
11537;SDS011;50159;49.426;11.182;2022-09-09T15:31:34;1.30;;;0.90;;
11537;SDS011;50159;49.426;11.182;2022-09-09T15:34:02;2.37;;;1.00;;
11537;SDS011;50159;49.426;11.182;2022-09-09T15:36:39;2.43;;;0.80;;
11537;SDS011;50159;49.426;11.182;2022-09-09T15:39:13;1.00;;;1.00;;
11537;SDS011;50159;49.426;11.182;2022-09-09T15:41:42;1.50;;;1.10;;
11537;SDS011;50159;49.426;11.182;2022-09-09T15:44:14;0.77;;;0.77;;
11537;SDS011;50159;49.426;11.182;2022-09-09T15:46:42;1.17;;;0.97;;
11537;SDS011;50159;49.426;11.182;2022-09-09T15:49:19;1.60;;;1.10;;
11537;SDS011;50159;49.426;11.182;2022-09-09T15:51:58;2.93;;;1.33;;
11537;SDS011;50159;49.426;11.182;2022-09-09T15:54:30;1.23;;;1.10;;
11537;SDS011;50159;49.426;11.182;2022-09-09T15:57:01;3.60;;;1.00;;
11537;SDS011;50159;49.426;11.182;2022-09-09T15:59:31;0.80;;;0.77;;
11537;SDS011;50159;49.426;11.182;2022-09-09T16:01:59;1.63;;;1.00;;
11537;SDS011;50159;49.426;11.182;2022-09-09T16:04:27;0.87;;;0.87;;
11537;SDS011;50159;49.426;11.182;2022-09-09T16:06:56;0.80;;;0.80;;
11537;SDS011;50159;49.426;11.182;2022-09-09T16:09:31;1.03;;;0.90;;
11537;SDS011;50159;49.426;11.182;2022-09-09T16:11:59;0.60;;;0.60;;
11537;SDS011;50159;49.426;11.182;2022-09-09T16:14:32;0.90;;;0.90;;
11537;SDS011;50159;49.426;11.182;2022-09-09T16:17:02;0.80;;;0.80;;
11537;SDS011;50159;49.426;11.182;2022-09-09T16:19:32;2.13;;;0.80;;
11537;SDS011;50159;49.426;11.182;2022-09-09T16:22:00;0.70;;;0.70;;
11537;SDS011;50159;49.426;11.182;2022-09-09T16:24:28;0.80;;;0.80;;
11537;SDS011;50159;49.426;11.182;2022-09-09T16:26:55;0.80;;;0.80;;
11537;SDS011;50159;49.426;11.182;2022-09-09T16:29:22;1.43;;;1.23;;
11537;SDS011;50159;49.426;11.182;2022-09-09T16:31:50;0.80;;;0.80;;
11537;SDS011;50159;49.426;11.182;2022-09-09T16:34:18;0.70;;;0.70;;
11537;SDS011;50159;49.426;11.182;2022-09-09T16:36:46;0.93;;;0.93;;
11537;SDS011;50159;49.426;11.182;2022-09-09T16:39:15;0.70;;;0.70;;
11537;SDS011;50159;49.426;11.182;2022-09-09T16:41:45;0.80;;;0.80;;
11537;SDS011;50159;49.426;11.182;2022-09-09T16:44:14;0.73;;;0.73;;
11537;SDS011;50159;49.426;11.182;2022-09-09T16:46:44;0.70;;;0.70;;
11537;SDS011;50159;49.426;11.182;2022-09-09T16:49:14;0.90;;;0.90;;
11537;SDS011;50159;49.426;11.182;2022-09-09T16:51:43;0.90;;;0.90;;
11537;SDS011;50159;49.426;11.182;2022-09-09T16:54:15;0.60;;;0.60;;
11537;SDS011;50159;49.426;11.182;2022-09-09T16:56:44;0.70;;;0.70;;
11537;SDS011;50159;49.426;11.182;2022-09-09T16:59:15;0.87;;;0.80;;
11537;SDS011;50159;49.426;11.182;2022-09-09T17:01:45;0.87;;;0.87;;
11537;SDS011;50159;49.426;11.182;2022-09-09T17:04:18;0.80;;;0.80;;